Terminal Aerodrome Forecast
Issued by NWS

Home | Current Version | Previous Version | Graphics & Text | Print | Product List | Glossary On
Versions: 1 2 3 4 5 6 7 8 9 10 11 12
109
FTUS43 KABR 162323
TAFATY
TAF
KATY 162323Z 1700/1724 VRB05KT P6SM SCT250
     FM170900 VRB04KT 4SM BR SCT250
     FM171400 23007KT P6SM SKC
     FM171800 29013KT P6SM SKC=

USA.gov is the U.S. government's official web portal to all federal, state and local government web resources and services.